Terminal Aerodrome Forecast
Issued by NWS

Home | Current Version | Previous Version | Graphics & Text | Print | Product List | Glossary On
Versions: 1 2 3 4 5 6 7 8 9 10 11 12 13 14 15 16 17
000
FTUS43 KTOP 191700
TAFMHK
TAF
KMHK 191720Z 1918/2018 20012G18KT P6SM FEW150
     FM192300 VRB03KT P6SM FEW090=

USA.gov is the U.S. government's official web portal to all federal, state and local government web resources and services.